createdAt,value
2022-10-19T00:01:23.917Z,3.10
2022-10-19T00:03:53.100Z,2.78
2022-10-19T00:06:25.449Z,2.50
2022-10-19T00:08:59.415Z,2.53
2022-10-19T00:11:27.025Z,2.42
2022-10-19T00:13:55.011Z,2.97
2022-10-19T00:16:22.437Z,2.38
2022-10-19T00:18:48.860Z,2.10
2022-10-19T00:21:17.759Z,2.88
2022-10-19T00:23:45.172Z,2.13
2022-10-19T00:26:12.882Z,2.10
2022-10-19T00:28:39.321Z,2.22
2022-10-19T00:31:08.572Z,2.40
2022-10-19T00:33:35.171Z,2.60
2022-10-19T00:36:01.979Z,2.70
2022-10-19T00:38:28.575Z,2.77
2022-10-19T00:40:54.917Z,2.47
2022-10-19T00:43:27.527Z,2.78
2022-10-19T00:45:53.898Z,2.28
2022-10-19T00:48:30.452Z,3.03
2022-10-19T00:50:59.704Z,3.20
2022-10-19T00:53:28.976Z,2.58
2022-10-19T00:55:57.176Z,3.10
2022-10-19T00:58:23.696Z,2.90
2022-10-19T01:00:50.197Z,3.28
2022-10-19T01:03:16.697Z,3.30
2022-10-19T01:05:43.334Z,3.15
2022-10-19T01:08:11.514Z,3.15
2022-10-19T01:10:50.755Z,2.97
2022-10-19T01:13:32.173Z,3.10
2022-10-19T01:16:18.967Z,2.73
2022-10-19T01:19:03.772Z,2.70
2022-10-19T01:21:46.525Z,2.83
2022-10-19T01:24:16.049Z,2.85
2022-10-19T01:26:54.403Z,3.40
2022-10-19T01:30:00.028Z,2.87
2022-10-19T01:32:38.242Z,2.60
2022-10-19T01:35:12.455Z,3.05
2022-10-19T01:38:04.276Z,2.70
2022-10-19T01:40:30.552Z,2.50
2022-10-19T01:43:02.522Z,2.93
2022-10-19T01:45:41.583Z,2.60
2022-10-19T01:48:16.054Z,3.20
2022-10-19T01:51:00.223Z,2.88
2022-10-19T01:53:30.283Z,3.42
2022-10-19T01:55:58.875Z,2.73
2022-10-19T01:58:29.500Z,2.80
2022-10-19T02:00:58.633Z,2.75
2022-10-19T02:03:25.818Z,2.75
2022-10-19T02:05:54.003Z,2.47
2022-10-19T02:08:27.547Z,2.80
2022-10-19T02:10:57.211Z,3.08
2022-10-19T02:13:26.176Z,3.17
2022-10-19T02:15:56.025Z,2.80
2022-10-19T02:18:33.213Z,2.92
2022-10-19T02:21:02.447Z,2.90
2022-10-19T02:23:29.127Z,3.20
2022-10-19T02:25:56.268Z,2.50
2022-10-19T02:28:26.973Z,3.10
2022-10-19T02:30:53.524Z,2.90
2022-10-19T02:33:20.054Z,2.70
2022-10-19T02:35:47.900Z,2.47
2022-10-19T02:38:18.864Z,2.50
2022-10-19T02:40:55.969Z,2.53
2022-10-19T02:43:26.371Z,2.17
2022-10-19T02:46:01.251Z,2.67
2022-10-19T02:48:31.220Z,2.40
2022-10-19T02:50:57.543Z,2.20
2022-10-19T02:53:23.850Z,2.55
2022-10-19T02:55:51.444Z,2.25
2022-10-19T02:58:17.921Z,2.30
2022-10-19T03:00:44.316Z,2.80
2022-10-19T03:03:11.123Z,2.42
2022-10-19T03:05:37.615Z,3.30
2022-10-19T03:08:04.238Z,2.80
2022-10-19T03:10:30.590Z,2.93
2022-10-19T03:13:00.124Z,2.53
2022-10-19T03:15:29.029Z,3.65
2022-10-19T03:17:56.201Z,2.28
2022-10-19T03:20:22.867Z,3.20
2022-10-19T03:22:49.548Z,2.93
2022-10-19T03:25:16.024Z,3.25
2022-10-19T03:27:42.321Z,3.17
2022-10-19T03:30:08.970Z,2.58
2022-10-19T03:32:35.300Z,2.40
2022-10-19T03:35:01.694Z,2.57
2022-10-19T03:37:28.244Z,2.60
2022-10-19T03:39:54.558Z,2.30
2022-10-19T03:42:20.857Z,2.50
2022-10-19T03:44:47.168Z,2.50
2022-10-19T03:47:13.512Z,2.43
2022-10-19T03:49:40.386Z,2.33
2022-10-19T03:52:07.026Z,2.65
2022-10-19T03:54:33.353Z,2.30
2022-10-19T03:56:59.680Z,2.25
2022-10-19T03:59:26.086Z,1.93
2022-10-19T04:01:52.417Z,2.42
2022-10-19T04:04:19.779Z,2.35
2022-10-19T04:06:49.808Z,2.60
2022-10-19T04:09:19.718Z,1.98
2022-10-19T04:11:46.581Z,2.23
2022-10-19T04:14:22.643Z,2.47
2022-10-19T04:16:58.590Z,2.45
2022-10-19T04:19:24.924Z,2.22
2022-10-19T04:21:51.269Z,2.25
2022-10-19T04:24:18.887Z,2.33
2022-10-19T04:26:47.763Z,2.05
2022-10-19T04:29:17.341Z,2.35
2022-10-19T04:31:43.772Z,2.00
2022-10-19T04:34:10.482Z,2.25
2022-10-19T04:36:36.999Z,1.90
2022-10-19T04:39:04.746Z,1.90
2022-10-19T04:41:31.087Z,2.47
2022-10-19T04:43:59.656Z,2.13
2022-10-19T04:46:27.304Z,1.95
2022-10-19T04:48:54.565Z,1.93
2022-10-19T04:51:22.246Z,2.47
2022-10-19T04:53:49.515Z,2.30
2022-10-19T04:56:19.044Z,2.45
2022-10-19T04:58:45.816Z,2.42
2022-10-19T05:01:15.815Z,2.33
2022-10-19T05:03:42.463Z,2.25
2022-10-19T05:06:09.794Z,2.22
2022-10-19T05:08:36.966Z,2.22
2022-10-19T05:11:07.060Z,2.13
2022-10-19T05:13:33.662Z,2.17
2022-10-19T05:16:02.016Z,2.28
2022-10-19T05:18:28.944Z,1.90
2022-10-19T05:21:11.688Z,2.20
2022-10-19T05:23:39.216Z,3.08
2022-10-19T05:26:17.546Z,1.97
2022-10-19T05:28:57.874Z,2.10
2022-10-19T05:31:26.906Z,2.13
2022-10-19T05:33:54.168Z,2.22
2022-10-19T05:36:26.204Z,2.17
2022-10-19T05:38:55.104Z,2.77
2022-10-19T05:41:22.507Z,3.20
2022-10-19T05:43:53.653Z,2.88
2022-10-19T05:46:19.977Z,2.03
2022-10-19T05:48:47.336Z,3.20
2022-10-19T05:51:18.798Z,2.43
2022-10-19T05:53:45.771Z,2.20
2022-10-19T05:56:17.907Z,2.15
2022-10-19T05:58:44.651Z,1.95
2022-10-19T06:01:11.859Z,2.88
2022-10-19T06:03:38.256Z,2.40
2022-10-19T06:06:06.054Z,2.50
2022-10-19T06:08:33.416Z,2.45
2022-10-19T06:11:11.372Z,2.90
2022-10-19T06:13:39.099Z,2.92
2022-10-19T06:16:06.847Z,2.90
2022-10-19T06:18:33.276Z,2.45
2022-10-19T06:21:04.427Z,2.80
2022-10-19T06:23:35.147Z,2.53
2022-10-19T06:26:07.140Z,2.65
2022-10-19T06:28:34.146Z,2.50
2022-10-19T06:31:00.931Z,2.50
2022-10-19T06:33:28.364Z,8.90
2022-10-19T06:35:54.720Z,4.35
2022-10-19T06:38:21.751Z,3.17
2022-10-19T06:40:49.111Z,2.13
2022-10-19T06:43:16.110Z,2.83
2022-10-19T06:45:42.519Z,3.38
2022-10-19T06:48:08.912Z,2.63
2022-10-19T06:50:35.478Z,2.63
2022-10-19T06:53:01.787Z,2.40
2022-10-19T06:55:28.236Z,2.83
2022-10-19T06:57:54.559Z,2.83
2022-10-19T07:00:20.899Z,2.83
2022-10-19T07:02:47.219Z,2.58
2022-10-19T07:05:13.539Z,2.50
2022-10-19T07:07:39.915Z,2.20
2022-10-19T07:10:06.586Z,2.15
2022-10-19T07:12:32.937Z,2.10
2022-10-19T07:14:59.287Z,2.25
2022-10-19T07:17:25.731Z,2.40
2022-10-19T07:19:52.100Z,1.65
2022-10-19T07:22:22.188Z,2.15
2022-10-19T07:24:52.268Z,1.98
2022-10-19T07:27:18.843Z,1.70
2022-10-19T07:29:45.259Z,1.70
2022-10-19T07:32:11.586Z,1.60
2022-10-19T07:34:37.904Z,1.48
2022-10-19T07:37:04.240Z,1.52
2022-10-19T07:39:30.674Z,1.80
2022-10-19T07:41:56.996Z,1.63
2022-10-19T07:44:23.457Z,1.40
2022-10-19T07:46:50.365Z,1.52
2022-10-19T07:49:18.887Z,1.70
2022-10-19T07:51:46.542Z,1.90
2022-10-19T07:54:13.505Z,2.03
2022-10-19T07:56:40.185Z,1.67
2022-10-19T07:59:06.624Z,1.70
2022-10-19T08:01:38.191Z,1.67
2022-10-19T08:06:50.949Z,1.73
2022-10-19T08:09:40.037Z,1.88
2022-10-19T08:12:05.422Z,1.90
2022-10-19T08:14:32.250Z,1.70
2022-10-19T08:16:58.665Z,1.38
2022-10-19T08:19:24.982Z,2.10
2022-10-19T08:21:51.327Z,1.58
2022-10-19T08:24:19.630Z,1.92
2022-10-19T08:26:47.826Z,1.60
2022-10-19T08:29:17.085Z,1.60
2022-10-19T08:31:45.252Z,1.57
2022-10-19T08:34:12.856Z,1.17
2022-10-19T08:36:39.655Z,1.40
2022-10-19T08:39:08.580Z,1.20
2022-10-19T08:41:41.171Z,0.95
2022-10-19T08:44:31.687Z,1.37
2022-10-19T08:47:41.622Z,1.05
2022-10-19T08:50:18.669Z,1.45
2022-10-19T08:52:49.545Z,1.05
2022-10-19T08:55:23.129Z,1.17
2022-10-19T08:58:14.324Z,1.20
2022-10-19T09:00:46.269Z,1.80
2022-10-19T09:03:54.805Z,1.23
2022-10-19T09:07:19.929Z,1.17
2022-10-19T09:09:55.387Z,1.17
2022-10-19T09:12:37.723Z,1.30
2022-10-19T09:15:10.286Z,1.58
2022-10-19T09:17:36.653Z,1.50
2022-10-19T09:20:18.730Z,0.90
2022-10-19T09:22:50.830Z,1.20
2022-10-19T09:25:22.263Z,1.43
2022-10-19T09:27:58.930Z,1.30
2022-10-19T09:30:25.576Z,1.23
2022-10-19T09:32:59.977Z,1.30
2022-10-19T09:35:28.753Z,1.20
2022-10-19T09:37:56.302Z,1.00
2022-10-19T09:40:28.939Z,1.27
2022-10-19T09:43:02.621Z,1.38
2022-10-19T09:45:48.639Z,1.40
2022-10-19T09:48:23.995Z,1.42
2022-10-19T09:50:59.740Z,1.00
2022-10-19T09:53:28.114Z,1.10
2022-10-19T09:56:02.773Z,1.10
2022-10-19T09:58:32.934Z,1.17
2022-10-19T10:01:01.074Z,0.90
2022-10-19T10:03:40.215Z,0.93
2022-10-19T10:06:14.107Z,0.90
2022-10-19T10:08:47.421Z,1.00
2022-10-19T10:11:22.721Z,0.85
2022-10-19T10:13:52.368Z,0.75
2022-10-19T10:16:22.147Z,0.50
2022-10-19T10:18:54.712Z,0.80
2022-10-19T10:21:28.664Z,1.17
2022-10-19T10:24:11.763Z,1.33
2022-10-19T10:26:41.208Z,0.80
2022-10-19T10:29:19.136Z,0.50
2022-10-19T10:31:49.752Z,0.47
2022-10-19T10:34:45.612Z,0.77
2022-10-19T10:37:25.839Z,0.63
2022-10-19T10:40:00.304Z,0.70
2022-10-19T10:42:44.713Z,0.40
2022-10-19T10:45:31.312Z,0.55
2022-10-19T10:47:59.701Z,0.45
2022-10-19T10:50:32.538Z,0.60
2022-10-19T10:53:38.873Z,1.15
2022-10-19T10:56:19.418Z,0.60
2022-10-19T10:59:12.126Z,0.50
2022-10-19T11:01:51.072Z,0.73
2022-10-19T11:04:25.387Z,0.52
2022-10-19T11:06:57.086Z,0.70
2022-10-19T11:09:36.553Z,0.67
2022-10-19T11:12:08.953Z,0.60
2022-10-19T11:14:41.381Z,0.50
2022-10-19T11:17:17.248Z,0.60
2022-10-19T11:19:45.056Z,0.77
2022-10-19T11:22:36.030Z,0.70
2022-10-19T11:25:26.383Z,0.57
2022-10-19T11:28:22.948Z,0.75
2022-10-19T11:31:08.118Z,0.40
2022-10-19T11:33:53.970Z,0.70
2022-10-19T11:36:32.489Z,0.37
2022-10-19T11:39:19.271Z,0.90
2022-10-19T11:42:05.684Z,0.40
2022-10-19T11:44:46.870Z,0.60
2022-10-19T11:47:32.357Z,0.70
2022-10-19T11:53:06.007Z,0.60
2022-10-19T11:55:40.555Z,0.50
2022-10-19T11:58:20.706Z,0.70
2022-10-19T12:00:58.763Z,0.52
2022-10-19T12:03:37.132Z,0.70
2022-10-19T12:06:14.343Z,0.65
2022-10-19T12:08:50.142Z,0.82
2022-10-19T12:11:41.214Z,0.52
2022-10-19T12:14:14.112Z,0.60
2022-10-19T12:16:44.164Z,0.67
2022-10-19T12:19:18.165Z,0.40
2022-10-19T12:21:45.766Z,0.50
2022-10-19T12:24:22.606Z,0.60
2022-10-19T12:26:50.867Z,0.57
2022-10-19T12:29:40.601Z,0.50
2022-10-19T12:32:07.998Z,0.98
2022-10-19T12:35:00.269Z,0.60
2022-10-19T12:37:44.034Z,0.60
2022-10-19T12:40:39.988Z,0.80
2022-10-19T12:43:10.693Z,0.70
2022-10-19T12:45:44.407Z,0.80
2022-10-19T12:48:18.914Z,0.90
2022-10-19T12:50:48.412Z,0.70
2022-10-19T12:56:03.990Z,0.80
2022-10-19T12:58:47.441Z,1.10
2022-10-19T13:01:24.328Z,0.70
2022-10-19T13:04:07.244Z,1.13
2022-10-19T13:06:36.443Z,0.70
2022-10-19T13:09:06.258Z,0.90
2022-10-19T13:14:26.052Z,0.70
2022-10-19T13:16:57.138Z,0.90
2022-10-19T13:19:24.436Z,0.98
2022-10-19T13:22:00.984Z,1.17
2022-10-19T13:24:27.344Z,0.90
2022-10-19T13:26:59.741Z,1.00
2022-10-19T13:29:27.667Z,0.82
2022-10-19T13:31:54.287Z,0.50
2022-10-19T13:34:24.169Z,0.60
2022-10-19T13:37:18.447Z,0.70
2022-10-19T13:39:44.832Z,0.65
2022-10-19T13:42:37.637Z,0.98
2022-10-19T13:45:05.066Z,0.70
2022-10-19T13:47:39.806Z,0.57
2022-10-19T13:50:31.235Z,0.70
2022-10-19T13:53:09.759Z,0.60
2022-10-19T13:56:07.671Z,0.80
2022-10-19T13:59:07.991Z,0.50
2022-10-19T14:02:02.241Z,0.93
2022-10-19T14:04:44.352Z,0.60
2022-10-19T14:07:17.350Z,0.60
2022-10-19T14:10:00.227Z,0.40
2022-10-19T14:12:30.099Z,0.50
2022-10-19T14:14:57.344Z,0.70
2022-10-19T14:17:33.421Z,0.80
2022-10-19T14:20:00.512Z,0.40
2022-10-19T14:22:30.018Z,0.40
2022-10-19T14:25:02.215Z,0.60
2022-10-19T14:27:30.326Z,0.50
2022-10-19T14:29:57.477Z,0.60
2022-10-19T14:32:27.311Z,0.47
2022-10-19T14:34:57.426Z,0.50
2022-10-19T14:37:26.720Z,0.50
2022-10-19T14:40:26.792Z,0.50
2022-10-19T14:42:55.143Z,0.93
2022-10-19T14:45:27.302Z,0.57
2022-10-19T14:47:59.721Z,0.60
2022-10-19T14:50:51.375Z,0.70
2022-10-19T14:53:30.374Z,0.50
2022-10-19T14:56:04.675Z,0.50
2022-10-19T14:58:40.049Z,0.55
2022-10-19T15:01:07.336Z,0.80
2022-10-19T15:03:34.315Z,0.50
2022-10-19T15:06:06.313Z,0.63
2022-10-19T15:08:42.559Z,0.80
2022-10-19T15:11:23.762Z,0.60
2022-10-19T15:14:00.559Z,0.50
2022-10-19T15:16:42.146Z,0.95
2022-10-19T15:19:25.037Z,0.60
2022-10-19T15:22:21.505Z,0.70
2022-10-19T15:25:14.111Z,0.50
2022-10-19T15:27:45.437Z,0.70
2022-10-19T15:30:17.737Z,0.70
2022-10-19T15:33:10.427Z,0.73
2022-10-19T15:35:39.467Z,0.57
2022-10-19T15:38:19.858Z,0.63
2022-10-19T15:40:47.129Z,0.80
2022-10-19T15:43:34.604Z,0.65
2022-10-19T15:46:19.765Z,0.67
2022-10-19T15:48:52.306Z,0.80
2022-10-19T15:51:48.021Z,0.77
2022-10-19T15:54:17.121Z,0.80
2022-10-19T15:56:46.598Z,0.90
2022-10-19T15:59:19.501Z,0.63
2022-10-19T16:01:55.110Z,1.00
2022-10-19T16:04:22.382Z,1.15
2022-10-19T16:06:48.732Z,1.10
2022-10-19T16:09:20.562Z,1.05
2022-10-19T16:11:47.615Z,1.20
2022-10-19T16:14:14.056Z,1.20
2022-10-19T16:16:41.839Z,1.08
2022-10-19T16:19:09.820Z,1.48
2022-10-19T16:21:38.183Z,1.30
2022-10-19T16:24:04.754Z,1.00
2022-10-19T16:26:32.286Z,1.20
2022-10-19T16:28:59.659Z,1.20
2022-10-19T16:31:26.075Z,1.35
2022-10-19T16:33:52.599Z,1.20
2022-10-19T16:36:20.303Z,1.40
2022-10-19T16:38:47.492Z,1.65
2022-10-19T16:41:14.472Z,1.75
2022-10-19T16:43:40.858Z,2.00
2022-10-19T16:46:07.470Z,1.85
2022-10-19T16:48:34.385Z,1.87
2022-10-19T16:51:06.913Z,1.73
2022-10-19T16:53:34.775Z,2.20
2022-10-19T16:56:06.037Z,2.38
2022-10-19T16:58:32.357Z,2.60
2022-10-19T17:01:01.394Z,2.43
2022-10-19T17:03:30.752Z,2.92
2022-10-19T17:05:57.160Z,2.70
2022-10-19T17:08:36.394Z,2.63
2022-10-19T17:11:12.620Z,2.42
2022-10-19T17:13:39.426Z,3.00
2022-10-19T17:16:06.967Z,2.60
2022-10-19T17:18:33.741Z,2.50
2022-10-19T17:21:05.383Z,2.47
2022-10-19T17:23:31.816Z,2.67
2022-10-19T17:25:58.241Z,2.73
2022-10-19T17:28:27.719Z,2.70
2022-10-19T17:30:54.288Z,2.80
2022-10-19T17:33:21.547Z,2.85
2022-10-19T17:35:47.935Z,2.90
2022-10-19T17:38:14.404Z,2.70
2022-10-19T17:40:40.768Z,3.20
2022-10-19T17:43:07.184Z,2.70
2022-10-19T17:45:33.591Z,3.00
2022-10-19T17:47:59.944Z,3.33
2022-10-19T17:50:26.248Z,2.83
2022-10-19T17:52:52.587Z,3.00
2022-10-19T17:55:19.000Z,3.20
2022-10-19T17:57:45.439Z,3.38
2022-10-19T18:00:12.216Z,3.60
2022-10-19T18:02:39.803Z,3.13
2022-10-19T18:05:06.437Z,3.60
2022-10-19T18:07:32.997Z,2.83
2022-10-19T18:09:59.474Z,3.22
2022-10-19T18:12:26.647Z,3.50
2022-10-19T18:14:52.949Z,3.00
2022-10-19T18:17:21.623Z,3.33
2022-10-19T18:19:49.308Z,3.10
2022-10-19T18:22:15.668Z,3.25
2022-10-19T18:24:41.984Z,3.78
2022-10-19T18:27:08.367Z,3.47
2022-10-19T18:29:34.718Z,3.47
2022-10-19T18:32:01.457Z,3.72
2022-10-19T18:34:27.936Z,3.10
2022-10-19T18:36:55.036Z,3.55
2022-10-19T18:39:21.736Z,3.23
2022-10-19T18:41:54.028Z,2.90
2022-10-19T18:44:25.278Z,3.95
2022-10-19T18:46:53.755Z,3.28
2022-10-19T18:49:20.299Z,3.03
2022-10-19T18:51:50.741Z,2.93
2022-10-19T18:54:20.857Z,3.05
2022-10-19T18:56:47.232Z,3.10
2022-10-19T18:59:13.715Z,2.63
2022-10-19T19:01:40.193Z,2.67
2022-10-19T19:04:09.022Z,3.23
2022-10-19T19:06:36.515Z,3.20
2022-10-19T19:09:07.458Z,3.13
2022-10-19T19:11:36.994Z,2.85
2022-10-19T19:14:22.492Z,2.85
2022-10-19T19:16:48.817Z,3.10
2022-10-19T19:19:17.737Z,2.65
2022-10-19T19:21:45.152Z,2.47
2022-10-19T19:24:17.215Z,2.83
2022-10-19T19:26:48.172Z,2.78
2022-10-19T19:29:15.035Z,2.57
2022-10-19T19:31:41.393Z,2.88
2022-10-19T19:34:09.268Z,2.80
2022-10-19T19:36:38.000Z,3.28
2022-10-19T19:39:05.266Z,2.90
2022-10-19T19:41:33.984Z,2.53
2022-10-19T19:44:00.480Z,2.58
2022-10-19T19:46:26.884Z,3.05
2022-10-19T19:48:59.949Z,2.70
2022-10-19T19:51:27.204Z,2.55
2022-10-19T19:53:53.548Z,2.70
2022-10-19T19:56:20.752Z,2.65
2022-10-19T19:58:47.595Z,2.53
2022-10-19T20:01:19.025Z,3.00
2022-10-19T20:03:46.734Z,2.90
2022-10-19T20:06:15.181Z,2.77
2022-10-19T20:08:41.999Z,2.50
2022-10-19T20:11:12.929Z,3.00
2022-10-19T20:13:39.736Z,2.50
2022-10-19T20:16:12.428Z,2.72
2022-10-19T20:18:40.599Z,2.53
2022-10-19T20:21:07.110Z,2.70
2022-10-19T20:23:33.523Z,2.80
2022-10-19T20:25:59.917Z,2.60
2022-10-19T20:28:27.886Z,2.47
2022-10-19T20:31:06.569Z,2.33
2022-10-19T20:33:35.155Z,2.30
2022-10-19T20:36:08.692Z,2.83
2022-10-19T20:38:38.410Z,2.45
2022-10-19T20:41:08.025Z,2.58
2022-10-19T20:43:36.259Z,2.87
2022-10-19T20:46:08.221Z,2.95
2022-10-19T20:48:34.572Z,3.08
2022-10-19T20:51:16.282Z,2.65
2022-10-19T20:53:46.204Z,2.45
2022-10-19T20:56:14.744Z,2.60
2022-10-19T20:58:43.351Z,2.35
2022-10-19T21:01:13.102Z,2.90
2022-10-19T21:03:39.977Z,2.33
2022-10-19T21:06:08.476Z,2.40
2022-10-19T21:08:35.903Z,2.30
2022-10-19T21:11:12.112Z,2.72
2022-10-19T21:13:38.467Z,2.63
2022-10-19T21:16:09.857Z,2.85
2022-10-19T21:18:36.176Z,2.38
2022-10-19T21:21:14.157Z,2.47
2022-10-19T21:23:41.387Z,2.38
2022-10-19T21:26:07.748Z,2.50
2022-10-19T21:28:34.160Z,2.70
2022-10-19T21:31:08.359Z,3.13
2022-10-19T21:33:35.781Z,2.90
2022-10-19T21:36:04.197Z,2.63
2022-10-19T21:38:30.909Z,2.75
2022-10-19T21:41:08.714Z,2.80
2022-10-19T21:43:35.471Z,2.92
2022-10-19T21:46:03.524Z,2.30
2022-10-19T21:48:30.562Z,2.25
2022-10-19T21:50:57.129Z,2.70
2022-10-19T21:53:23.612Z,2.40
2022-10-19T21:55:51.704Z,2.58
2022-10-19T21:58:21.524Z,2.70
2022-10-19T22:00:48.443Z,2.80
2022-10-19T22:03:17.189Z,2.92
2022-10-19T22:05:51.388Z,2.50
2022-10-19T22:08:17.722Z,2.78
2022-10-19T22:10:44.032Z,2.90
2022-10-19T22:13:10.472Z,2.85
2022-10-19T22:15:38.129Z,2.90
2022-10-19T22:18:05.363Z,2.40
2022-10-19T22:20:31.867Z,2.72
2022-10-19T22:22:58.237Z,2.50
2022-10-19T22:25:24.562Z,2.78
2022-10-19T22:27:50.914Z,2.42
2022-10-19T22:30:17.334Z,2.53
2022-10-19T22:32:43.742Z,2.78
2022-10-19T22:35:10.064Z,2.60
2022-10-19T22:37:36.385Z,2.88
2022-10-19T22:40:02.790Z,2.50
2022-10-19T22:42:29.199Z,2.80
2022-10-19T22:44:55.615Z,2.60
2022-10-19T22:47:22.019Z,2.90
2022-10-19T22:49:48.352Z,2.67
2022-10-19T22:52:16.324Z,2.88
2022-10-19T22:54:43.085Z,2.42
2022-10-19T22:57:11.677Z,2.75
2022-10-19T22:59:38.487Z,3.10
2022-10-19T23:02:04.984Z,2.85
2022-10-19T23:04:31.455Z,2.60
2022-10-19T23:06:57.821Z,2.65
2022-10-19T23:09:24.236Z,2.58
2022-10-19T23:11:50.575Z,2.80
2022-10-19T23:14:16.965Z,2.30
2022-10-19T23:16:43.312Z,3.40
2022-10-19T23:19:09.653Z,2.80
2022-10-19T23:21:35.982Z,2.53
2022-10-19T23:24:02.396Z,4.00
2022-10-19T23:26:28.803Z,3.10
2022-10-19T23:28:55.161Z,3.08
2022-10-19T23:31:26.260Z,2.90
2022-10-19T23:33:53.438Z,3.13
2022-10-19T23:36:22.345Z,2.67
2022-10-19T23:38:50.350Z,2.85
2022-10-19T23:41:17.813Z,3.05
2022-10-19T23:43:44.578Z,2.88
2022-10-19T23:46:11.475Z,2.90
2022-10-19T23:48:37.903Z,3.13
2022-10-19T23:51:10.631Z,3.60
2022-10-19T23:53:41.037Z,3.20
2022-10-19T23:56:20.571Z,2.70
2022-10-19T23:58:47.622Z,2.78
